createdAt,value
2019-04-14T00:01:55.099Z,99.90
2019-04-14T00:04:27.200Z,99.90
2019-04-14T00:06:59.031Z,99.90
2019-04-14T00:09:29.765Z,99.90
2019-04-14T00:12:02.096Z,99.90
2019-04-14T00:14:33.554Z,99.90
2019-04-14T00:17:04.552Z,99.90
2019-04-14T00:19:35.111Z,99.90
2019-04-14T00:22:07.215Z,99.90
2019-04-14T00:24:38.140Z,99.90
2019-04-14T00:27:08.694Z,99.90
2019-04-14T00:29:39.318Z,99.90
2019-04-14T00:32:09.808Z,99.90
2019-04-14T00:34:59.289Z,99.90
2019-04-14T00:37:34.398Z,99.90
2019-04-14T00:40:09.011Z,99.90
2019-04-14T00:42:41.155Z,99.90
2019-04-14T00:45:34.019Z,99.90
2019-04-14T00:48:03.386Z,99.90
2019-04-14T00:50:28.283Z,99.90
2019-04-14T00:52:58.926Z,99.90
2019-04-14T00:55:29.377Z,99.90
2019-04-14T00:57:59.873Z,99.90
2019-04-14T01:00:30.471Z,99.90
2019-04-14T01:03:01.026Z,99.90
2019-04-14T01:05:33.375Z,99.90
2019-04-14T01:08:03.674Z,99.90
2019-04-14T01:10:34.512Z,99.90
2019-04-14T01:13:08.078Z,99.90
2019-04-14T01:15:49.172Z,99.90
2019-04-14T01:18:12.451Z,99.90
2019-04-14T01:20:43.273Z,99.90
2019-04-14T01:23:15.028Z,99.90
2019-04-14T01:25:45.587Z,99.90
2019-04-14T01:28:16.074Z,99.90
2019-04-14T01:30:46.537Z,99.90
2019-04-14T01:33:18.252Z,99.70
2019-04-14T01:35:48.951Z,99.70
2019-04-14T01:38:19.436Z,99.50
2019-04-14T01:40:51.011Z,99.50
2019-04-14T01:43:21.562Z,99.50
2019-04-14T01:46:04.308Z,99.30
2019-04-14T01:48:24.216Z,99.30
2019-04-14T01:51:00.474Z,99.40
2019-04-14T01:53:36.002Z,99.40
2019-04-14T01:56:08.101Z,99.40
2019-04-14T01:58:49.281Z,99.30
2019-04-14T02:01:24.208Z,99.30
2019-04-14T02:03:54.774Z,99.40
2019-04-14T02:06:26.556Z,99.50
2019-04-14T02:08:57.116Z,99.30
2019-04-14T02:11:27.586Z,99.20
2019-04-14T02:13:59.123Z,99.00
2019-04-14T02:16:37.895Z,99.10
2019-04-14T02:19:04.493Z,99.10
2019-04-14T02:21:34.553Z,99.10
2019-04-14T02:24:05.429Z,99.10
2019-04-14T02:26:37.225Z,99.00
2019-04-14T02:29:08.024Z,99.00
2019-04-14T02:32:00.054Z,99.00
2019-04-14T02:34:41.860Z,99.00
2019-04-14T02:37:10.870Z,99.00
2019-04-14T02:39:46.752Z,98.90
2019-04-14T02:44:45.941Z,98.80
2019-04-14T02:47:38.542Z,98.60
2019-04-14T02:49:50.789Z,98.60
2019-04-14T02:52:20.468Z,98.80
2019-04-14T02:54:59.998Z,98.70
2019-04-14T02:57:30.406Z,98.60
2019-04-14T02:59:58.797Z,98.60
2019-04-14T03:07:38.224Z,98.60
2019-04-14T03:10:00.706Z,98.60
2019-04-14T03:12:38.812Z,98.50
2019-04-14T03:15:07.298Z,98.50
2019-04-14T03:18:16.331Z,98.40
2019-04-14T03:20:47.240Z,98.60
2019-04-14T03:23:17.238Z,98.60
2019-04-14T03:25:49.778Z,98.80
2019-04-14T03:31:39.589Z,99.20
2019-04-14T03:34:17.032Z,99.30
2019-04-14T03:36:49.844Z,99.50
2019-04-14T03:38:50.882Z,99.20
2019-04-14T03:43:41.794Z,99.00
2019-04-14T03:51:40.469Z,99.50
2019-04-14T03:53:57.576Z,99.60
2019-04-14T03:56:13.787Z,99.50
2019-04-14T03:58:42.331Z,99.70
2019-04-14T04:01:12.797Z,99.70
2019-04-14T04:03:43.571Z,99.90
2019-04-14T04:06:14.128Z,99.90
2019-04-14T04:08:44.612Z,99.90
2019-04-14T04:11:15.122Z,99.30
2019-04-14T04:13:45.598Z,99.00
2019-04-14T04:16:18.049Z,98.90
2019-04-14T04:18:58.766Z,99.10
2019-04-14T04:21:24.975Z,99.00
2019-04-14T04:23:55.920Z,99.70
2019-04-14T04:26:30.527Z,99.90
2019-04-14T04:29:02.835Z,99.90
2019-04-14T04:31:54.414Z,99.90
2019-04-14T04:34:35.910Z,99.90
2019-04-14T04:37:26.081Z,99.90
2019-04-14T04:40:00.885Z,99.90
2019-04-14T04:42:31.412Z,99.90
2019-04-14T04:45:02.002Z,99.90
2019-04-14T04:47:33.986Z,99.90
2019-04-14T04:50:06.546Z,99.90
2019-04-14T04:52:38.603Z,99.90
2019-04-14T04:55:09.288Z,99.90
2019-04-14T04:57:39.778Z,99.90
2019-04-14T05:00:11.438Z,99.80
2019-04-14T05:02:43.938Z,99.90
2019-04-14T05:06:09.231Z,99.90
2019-04-14T05:08:50.358Z,99.90
2019-04-14T05:11:25.201Z,99.90
2019-04-14T05:13:57.584Z,99.90
2019-04-14T05:16:30.566Z,99.50
2019-04-14T05:19:12.019Z,98.90
2019-04-14T05:21:34.265Z,98.40
2019-04-14T05:24:05.095Z,98.20
2019-04-14T05:26:35.611Z,97.80
2019-04-14T05:29:06.102Z,97.40
2019-04-14T05:31:36.596Z,97.40
2019-04-14T05:34:07.170Z,97.20
2019-04-14T05:36:38.842Z,97.00
2019-04-14T05:39:09.368Z,96.80
2019-04-14T05:41:55.852Z,96.60
2019-04-14T05:44:14.355Z,96.40
2019-04-14T05:46:44.817Z,96.10
2019-04-14T05:49:28.543Z,96.10
2019-04-14T05:51:48.119Z,96.00
2019-04-14T05:54:18.685Z,96.10
2019-04-14T05:56:49.405Z,95.90
2019-04-14T05:59:19.945Z,96.00
2019-04-14T06:01:51.074Z,96.00
2019-04-14T06:04:22.185Z,96.10
2019-04-14T06:06:52.712Z,96.20
2019-04-14T06:09:23.201Z,95.80
2019-04-14T06:11:53.670Z,95.60
2019-04-14T06:14:24.156Z,95.70
2019-04-14T06:16:54.612Z,95.70
2019-04-14T06:19:36.411Z,95.40
2019-04-14T06:22:00.223Z,95.50
2019-04-14T06:24:31.669Z,95.10
2019-04-14T06:27:02.149Z,94.80
2019-04-14T06:29:33.992Z,94.60
2019-04-14T06:32:18.176Z,94.40
2019-04-14T06:35:06.482Z,94.10
2019-04-14T06:37:47.619Z,93.20
2019-04-14T06:40:18.678Z,92.50
2019-04-14T06:42:49.272Z,92.20
2019-04-14T06:45:22.127Z,91.70
2019-04-14T06:47:55.062Z,91.40
2019-04-14T06:50:25.533Z,91.20
2019-04-14T06:52:56.052Z,90.90
2019-04-14T06:55:26.526Z,91.00
2019-04-14T06:57:57.033Z,90.90
2019-04-14T07:00:27.529Z,90.60
2019-04-14T07:02:58.066Z,91.00
2019-04-14T07:05:28.566Z,91.00
2019-04-14T07:07:59.028Z,90.90
2019-04-14T07:10:29.535Z,90.50
2019-04-14T07:13:00.037Z,89.90
2019-04-14T07:15:30.538Z,89.50
2019-04-14T07:18:02.495Z,89.80
2019-04-14T07:20:32.994Z,90.10
2019-04-14T07:23:03.467Z,90.10
2019-04-14T07:25:33.980Z,89.40
2019-04-14T07:28:04.440Z,89.40
2019-04-14T07:30:53.038Z,89.50
2019-04-14T07:33:40.201Z,89.80
2019-04-14T07:36:12.331Z,89.70
2019-04-14T07:38:44.475Z,89.90
2019-04-14T07:41:19.119Z,89.30
2019-04-14T07:43:51.254Z,87.30
2019-04-14T07:46:39.587Z,86.70
2019-04-14T07:49:27.466Z,86.30
2019-04-14T07:52:08.257Z,82.10
2019-04-14T07:54:41.410Z,82.40
2019-04-14T07:57:29.729Z,82.80
2019-04-14T08:00:10.547Z,78.40
2019-04-14T08:02:50.887Z,75.90
2019-04-14T08:05:22.988Z,73.40
2019-04-14T08:07:53.490Z,72.90
2019-04-14T08:10:24.087Z,71.90
2019-04-14T08:12:54.593Z,72.50
2019-04-14T08:15:25.247Z,72.60
2019-04-14T08:17:55.780Z,72.00
2019-04-14T08:20:27.613Z,68.40
2019-04-14T08:22:58.652Z,66.40
2019-04-14T08:25:29.153Z,64.20
2019-04-14T08:27:59.627Z,65.00
2019-04-14T08:30:30.307Z,63.70
2019-04-14T08:33:00.785Z,59.60
2019-04-14T08:35:31.379Z,58.90
2019-04-14T08:38:01.884Z,60.60
2019-04-14T08:40:32.344Z,63.30
2019-04-14T08:43:16.459Z,63.10
2019-04-14T08:45:56.554Z,63.80
2019-04-14T08:48:44.836Z,62.20
2019-04-14T08:51:16.942Z,60.00
2019-04-14T08:53:52.208Z,61.10
2019-04-14T08:56:24.334Z,59.70
2019-04-14T08:58:58.944Z,58.00
2019-04-14T09:01:36.685Z,58.30
2019-04-14T09:04:17.704Z,54.60
2019-04-14T09:06:49.819Z,53.70
2019-04-14T09:09:22.051Z,54.10
2019-04-14T09:11:55.498Z,54.90
2019-04-14T09:14:26.050Z,57.50
2019-04-14T09:16:56.560Z,61.20
2019-04-14T09:19:27.133Z,62.30
2019-04-14T09:21:57.596Z,60.60
2019-04-14T09:24:28.091Z,56.90
2019-04-14T09:26:58.562Z,55.10
2019-04-14T09:29:29.056Z,56.40
2019-04-14T09:32:00.030Z,56.70
2019-04-14T09:34:30.523Z,56.00
2019-04-14T09:37:00.994Z,56.00
2019-04-14T09:39:31.533Z,51.50
2019-04-14T09:42:02.855Z,51.30
2019-04-14T09:44:33.467Z,51.00
2019-04-14T09:47:03.988Z,50.30
2019-04-14T09:49:34.482Z,50.60
2019-04-14T09:52:05.132Z,51.60
2019-04-14T09:54:35.611Z,50.50
2019-04-14T09:57:06.179Z,50.80
2019-04-14T09:59:36.654Z,50.00
2019-04-14T10:02:07.238Z,51.70
2019-04-14T10:04:37.751Z,52.10
2019-04-14T10:07:08.252Z,53.00
2019-04-14T10:09:38.722Z,52.80
2019-04-14T10:12:09.215Z,51.70
2019-04-14T10:14:39.723Z,53.20
2019-04-14T10:17:10.194Z,52.30
2019-04-14T10:19:40.690Z,50.20
2019-04-14T10:22:11.464Z,49.50
2019-04-14T10:24:41.934Z,50.20
2019-04-14T10:27:12.426Z,49.20
2019-04-14T10:29:43.693Z,49.00
2019-04-14T10:32:14.154Z,49.00
2019-04-14T10:34:44.671Z,49.50
2019-04-14T10:37:15.142Z,49.00
2019-04-14T10:39:45.644Z,49.50
2019-04-14T10:42:16.110Z,48.10
2019-04-14T10:44:46.602Z,46.60
2019-04-14T10:47:17.971Z,44.80
2019-04-14T10:49:48.482Z,44.80
2019-04-14T10:52:18.938Z,43.80
2019-04-14T10:54:49.501Z,42.60
2019-04-14T10:57:19.967Z,41.90
2019-04-14T10:59:50.490Z,42.60
2019-04-14T11:02:20.970Z,42.30
2019-04-14T11:04:51.463Z,43.50
2019-04-14T11:07:26.439Z,43.40
2019-04-14T11:09:57.022Z,42.70
2019-04-14T11:12:27.484Z,43.80
2019-04-14T11:14:58.055Z,43.50
2019-04-14T11:17:28.520Z,42.90
2019-04-14T11:19:59.027Z,43.90
2019-04-14T11:22:29.511Z,44.00
2019-04-14T11:25:00.029Z,43.20
2019-04-14T11:27:30.520Z,44.30
2019-04-14T11:30:00.996Z,44.80
2019-04-14T11:32:43.196Z,44.20
2019-04-14T11:35:16.348Z,45.50
2019-04-14T11:37:47.740Z,44.10
2019-04-14T11:40:19.840Z,44.40
2019-04-14T11:42:52.422Z,43.30
2019-04-14T11:45:23.105Z,43.80
2019-04-14T11:47:53.605Z,43.00
2019-04-14T11:50:24.169Z,45.20
2019-04-14T11:52:54.691Z,44.70
2019-04-14T11:55:25.234Z,43.60
2019-04-14T11:57:55.747Z,43.80
2019-04-14T12:00:28.852Z,40.70
2019-04-14T12:03:01.727Z,40.00
2019-04-14T12:05:37.494Z,40.60
2019-04-14T12:08:25.657Z,39.50
2019-04-14T12:10:56.317Z,39.00
2019-04-14T12:13:26.820Z,38.50
2019-04-14T12:15:57.326Z,39.30
2019-04-14T12:18:27.808Z,38.90
2019-04-14T12:20:58.389Z,39.90
2019-04-14T12:23:28.869Z,38.90
2019-04-14T12:26:05.546Z,39.20
2019-04-14T12:28:31.825Z,38.10
2019-04-14T12:31:03.982Z,37.60
2019-04-14T12:33:34.675Z,36.80
2019-04-14T12:36:10.759Z,35.20
2019-04-14T12:38:42.323Z,34.50
2019-04-14T12:41:17.723Z,34.80
2019-04-14T12:44:06.058Z,33.90
2019-04-14T12:46:50.375Z,34.80
2019-04-14T12:49:34.688Z,34.50
2019-04-14T12:52:21.400Z,35.50
2019-04-14T12:54:51.028Z,34.90
2019-04-14T12:57:25.602Z,36.30
2019-04-14T12:59:56.069Z,36.50
2019-04-14T13:02:28.218Z,37.40
2019-04-14T13:04:58.684Z,38.60
2019-04-14T13:07:29.184Z,39.00
2019-04-14T13:09:59.641Z,39.10
2019-04-14T13:12:30.141Z,39.80
2019-04-14T13:15:02.864Z,40.00
2019-04-14T13:17:32.811Z,39.80
2019-04-14T13:20:05.316Z,40.40
2019-04-14T13:22:35.951Z,40.50
2019-04-14T13:25:07.131Z,40.60
2019-04-14T13:27:37.607Z,41.10
2019-04-14T13:30:12.127Z,40.80
2019-04-14T13:32:42.593Z,41.10
2019-04-14T13:35:13.174Z,41.10
2019-04-14T13:37:43.628Z,41.50
2019-04-14T13:40:14.735Z,42.50
2019-04-14T13:42:45.220Z,41.30
2019-04-14T13:45:15.932Z,41.90
2019-04-14T13:47:46.402Z,42.20
2019-04-14T13:50:16.931Z,41.90
2019-04-14T13:52:48.382Z,41.40
2019-04-14T13:55:18.939Z,41.60
2019-04-14T13:57:49.406Z,41.30
2019-04-14T14:00:20.706Z,43.10
2019-04-14T14:02:51.179Z,40.50
2019-04-14T14:05:21.702Z,39.60
2019-04-14T14:07:52.171Z,39.20
2019-04-14T14:10:22.742Z,39.10
2019-04-14T14:13:07.154Z,38.60
2019-04-14T14:15:46.793Z,39.10
2019-04-14T14:18:29.135Z,39.10
2019-04-14T14:21:19.741Z,38.60
2019-04-14T14:23:52.684Z,38.00
2019-04-14T14:26:33.668Z,36.50
2019-04-14T14:29:04.238Z,37.10
2019-04-14T14:31:34.704Z,37.20
2019-04-14T14:34:05.280Z,36.90
2019-04-14T14:36:35.743Z,37.30
2019-04-14T14:39:10.056Z,37.80
2019-04-14T14:41:40.525Z,38.00
2019-04-14T14:44:11.023Z,37.10
2019-04-14T14:46:51.945Z,37.80
2019-04-14T14:49:26.845Z,39.20
2019-04-14T14:51:57.067Z,38.40
2019-04-14T14:54:27.633Z,39.20
2019-04-14T14:56:58.165Z,39.50
2019-04-14T14:59:28.666Z,41.10
2019-04-14T15:01:59.127Z,42.20
2019-04-14T15:04:29.685Z,41.70
2019-04-14T15:07:00.115Z,40.60
2019-04-14T15:09:30.606Z,40.30
2019-04-14T15:12:01.076Z,37.90
2019-04-14T15:14:31.553Z,38.40
2019-04-14T15:17:02.114Z,38.80
2019-04-14T15:19:32.609Z,38.90
2019-04-14T15:22:03.166Z,39.70
2019-04-14T15:24:33.652Z,40.00
2019-04-14T15:27:04.162Z,40.10
2019-04-14T15:29:34.640Z,40.50
2019-04-14T15:32:05.202Z,40.40
2019-04-14T15:34:35.673Z,40.60
2019-04-14T15:37:06.298Z,41.60
2019-04-14T15:39:37.719Z,40.80
2019-04-14T15:42:08.363Z,40.90
2019-04-14T15:44:38.840Z,41.00
2019-04-14T15:47:09.339Z,40.30
2019-04-14T15:49:39.843Z,40.00
2019-04-14T15:52:10.320Z,39.00
2019-04-14T15:54:40.795Z,38.10
2019-04-14T15:57:16.984Z,36.80
2019-04-14T15:59:54.146Z,36.00
2019-04-14T16:02:32.425Z,35.00
2019-04-14T16:05:04.534Z,34.00
2019-04-14T16:07:39.474Z,33.80
2019-04-14T16:10:27.129Z,34.30
2019-04-14T16:13:11.457Z,34.40
2019-04-14T16:15:43.563Z,35.00
2019-04-14T16:18:18.311Z,36.30
2019-04-14T16:20:48.792Z,36.10
2019-04-14T16:23:19.340Z,36.40
2019-04-14T16:26:09.607Z,36.60
2019-04-14T16:28:41.755Z,36.40
2019-04-14T16:31:13.875Z,36.60
2019-04-14T16:34:02.400Z,37.70
2019-04-14T16:36:34.540Z,38.30
2019-04-14T16:39:06.844Z,38.80
2019-04-14T16:41:37.386Z,38.10
2019-04-14T16:44:07.899Z,38.50
2019-04-14T16:46:38.403Z,38.70
2019-04-14T16:49:08.914Z,43.70
2019-04-14T16:51:57.384Z,42.00
2019-04-14T16:54:45.775Z,41.30
2019-04-14T16:57:34.182Z,41.30
2019-04-14T17:00:06.943Z,41.60
2019-04-14T17:02:37.433Z,41.00
2019-04-14T17:05:09.903Z,41.20
2019-04-14T17:07:40.386Z,41.50
2019-04-14T17:10:12.960Z,40.20
2019-04-14T17:12:43.661Z,41.00
2019-04-14T17:15:16.937Z,41.80
2019-04-14T17:17:51.775Z,41.90
2019-04-14T17:20:26.467Z,43.40
2019-04-14T17:22:59.656Z,44.40
2019-04-14T17:25:31.755Z,44.40
2019-04-14T17:28:06.799Z,43.50
2019-04-14T17:30:50.860Z,43.80
2019-04-14T17:33:23.007Z,44.00
2019-04-14T17:36:00.882Z,43.90
2019-04-14T17:38:31.157Z,44.00
2019-04-14T17:41:04.067Z,43.40
2019-04-14T17:43:42.081Z,43.60
2019-04-14T17:46:18.287Z,43.80
2019-04-14T17:49:03.812Z,44.40
2019-04-14T17:51:44.955Z,44.50
2019-04-14T17:54:29.039Z,44.30
2019-04-14T17:56:56.507Z,45.00
2019-04-14T17:59:34.947Z,45.50
2019-04-14T18:02:07.848Z,45.90
2019-04-14T18:04:39.995Z,45.80
2019-04-14T18:10:25.514Z,45.70
2019-04-14T18:13:01.498Z,45.70
2019-04-14T18:15:33.613Z,45.60
2019-04-14T18:18:11.532Z,44.50
2019-04-14T18:20:43.675Z,43.80
2019-04-14T18:23:14.194Z,43.90
2019-04-14T18:25:44.695Z,43.90
2019-04-14T18:28:23.399Z,43.40
2019-04-14T18:30:55.521Z,43.60
2019-04-14T18:33:31.479Z,43.60
2019-04-14T18:36:16.425Z,43.80
2019-04-14T18:38:51.348Z,44.40
2019-04-14T18:41:32.139Z,44.60
2019-04-14T18:44:21.525Z,44.00
2019-04-14T18:47:02.692Z,43.90
2019-04-14T18:52:43.954Z,43.70
2019-04-14T18:55:33.790Z,44.10
2019-04-14T18:58:11.591Z,44.40
2019-04-14T19:00:44.792Z,44.80
2019-04-14T19:03:15.377Z,45.10
2019-04-14T19:05:45.877Z,45.20
2019-04-14T19:08:16.424Z,45.60
2019-04-14T19:11:00.622Z,45.20
2019-04-14T19:13:32.720Z,45.30
2019-04-14T19:16:05.640Z,45.80
2019-04-14T19:18:37.757Z,46.40
2019-04-14T19:21:11.673Z,46.10
2019-04-14T19:23:46.300Z,45.80
2019-04-14T19:26:17.475Z,45.60
2019-04-14T19:28:48.062Z,45.80
2019-04-14T19:31:18.539Z,45.90
2019-04-14T19:33:49.052Z,45.40
2019-04-14T19:36:19.592Z,45.10
2019-04-14T19:38:50.108Z,45.40
2019-04-14T19:41:20.573Z,46.10
2019-04-14T19:43:51.103Z,45.90
2019-04-14T19:46:21.588Z,46.00
2019-04-14T19:48:52.167Z,46.30
2019-04-14T19:51:22.664Z,45.80
2019-04-14T19:53:53.216Z,45.80
2019-04-14T19:56:23.768Z,46.30
2019-04-14T19:58:54.258Z,46.60
2019-04-14T20:01:25.030Z,46.50
2019-04-14T20:03:55.515Z,46.70
2019-04-14T20:06:26.099Z,46.70
2019-04-14T20:08:56.576Z,46.60
2019-04-14T20:11:27.109Z,47.50
2019-04-14T20:13:58.133Z,47.60
2019-04-14T20:16:36.169Z,47.60
2019-04-14T20:19:11.022Z,47.80
2019-04-14T20:21:44.016Z,46.80
2019-04-14T20:24:28.031Z,47.00
2019-04-14T20:27:02.831Z,47.70
2019-04-14T20:29:43.656Z,47.30
2019-04-14T20:32:21.940Z,46.90
2019-04-14T20:34:53.696Z,47.60
2019-04-14T20:37:24.208Z,47.50
2019-04-14T20:39:54.734Z,48.30
2019-04-14T20:42:25.269Z,46.70
2019-04-14T20:44:56.374Z,47.10
2019-04-14T20:47:26.953Z,45.70
2019-04-14T20:49:57.527Z,43.80
2019-04-14T20:52:28.087Z,43.80
2019-04-14T20:54:59.361Z,44.80
2019-04-14T20:57:31.122Z,45.10
2019-04-14T21:00:03.540Z,42.90
2019-04-14T21:02:35.685Z,42.60
2019-04-14T21:05:24.416Z,42.20
2019-04-14T21:07:56.528Z,42.60
2019-04-14T21:10:34.707Z,42.80
2019-04-14T21:13:15.871Z,43.60
2019-04-14T21:15:52.675Z,44.70
2019-04-14T21:18:24.796Z,44.80
2019-04-14T21:21:00.006Z,46.00
2019-04-14T21:23:31.801Z,47.00
2019-04-14T21:26:12.067Z,48.40
2019-04-14T21:29:00.044Z,48.80
2019-04-14T21:34:40.214Z,50.00
2019-04-14T21:37:15.181Z,50.40
2019-04-14T21:39:50.100Z,52.10
2019-04-14T21:42:21.064Z,53.30
2019-04-14T21:44:51.528Z,54.00
2019-04-14T21:47:22.085Z,53.40
2019-04-14T21:49:52.705Z,52.30
2019-04-14T21:52:30.799Z,50.30
2019-04-14T21:55:01.793Z,49.80
2019-04-14T21:57:34.381Z,49.60
2019-04-14T22:00:25.816Z,50.30
2019-04-14T22:03:11.375Z,51.00
2019-04-14T22:05:52.730Z,51.60
2019-04-14T22:08:27.719Z,51.30
2019-04-14T22:11:17.726Z,52.80
2019-04-14T22:13:50.768Z,54.20
2019-04-14T22:16:21.864Z,54.60
2019-04-14T22:18:52.395Z,54.20
2019-04-14T22:21:23.204Z,54.60
2019-04-14T22:24:01.272Z,54.60
2019-04-14T22:26:26.550Z,55.10
2019-04-14T22:28:57.119Z,56.00
2019-04-14T22:31:27.681Z,56.60
2019-04-14T22:33:58.167Z,57.40
2019-04-14T22:36:29.896Z,58.40
2019-04-14T22:39:00.449Z,58.40
2019-04-14T22:41:30.936Z,58.50
2019-04-14T22:44:01.425Z,57.60
2019-04-14T22:46:31.893Z,58.00
2019-04-14T22:49:02.392Z,58.20
2019-04-14T22:51:32.924Z,57.90
2019-04-14T22:54:03.431Z,58.20
2019-04-14T22:56:39.540Z,58.60
2019-04-14T22:59:06.165Z,59.30
2019-04-14T23:01:38.320Z,59.70
2019-04-14T23:04:25.180Z,59.60
2019-04-14T23:07:03.171Z,60.50
2019-04-14T23:09:35.346Z,61.10
2019-04-14T23:12:11.106Z,61.90
2019-04-14T23:14:52.454Z,62.50
2019-04-14T23:17:22.714Z,62.80
2019-04-14T23:20:03.774Z,64.10
2019-04-14T23:22:44.015Z,64.10
2019-04-14T23:25:14.541Z,64.80
2019-04-14T23:27:45.043Z,64.80
2019-04-14T23:30:15.714Z,65.00
2019-04-14T23:32:46.355Z,65.10
2019-04-14T23:35:16.823Z,65.60
2019-04-14T23:37:47.313Z,65.20
2019-04-14T23:40:17.806Z,65.30
2019-04-14T23:42:48.814Z,65.90
2019-04-14T23:45:19.373Z,66.00
2019-04-14T23:47:49.861Z,66.20
2019-04-14T23:50:20.349Z,67.10
2019-04-14T23:52:50.901Z,67.10
2019-04-14T23:55:21.465Z,67.60
2019-04-14T23:57:51.908Z,68.20
